sensor_id;sensor_type;location;lat;lon;timestamp;P1;durP1;ratioP1;P2;durP2;ratioP2
21014;SDS011;19207;-23.482;-46.500;2022-11-18T00:01:09;9.63;;;3.97;;
21014;SDS011;19207;-23.482;-46.500;2022-11-18T00:03:56;15.95;;;4.30;;
21014;SDS011;19207;-23.482;-46.500;2022-11-18T00:06:43;11.43;;;3.70;;
21014;SDS011;19207;-23.482;-46.500;2022-11-18T00:09:30;11.85;;;4.18;;
21014;SDS011;19207;-23.482;-46.500;2022-11-18T00:12:16;13.73;;;4.30;;
21014;SDS011;19207;-23.482;-46.500;2022-11-18T00:15:21;14.05;;;5.45;;
21014;SDS011;19207;-23.482;-46.500;2022-11-18T00:18:08;13.95;;;5.45;;
21014;SDS011;19207;-23.482;-46.500;2022-11-18T00:20:59;15.05;;;4.10;;
21014;SDS011;19207;-23.482;-46.500;2022-11-18T00:23:47;14.57;;;4.18;;
21014;SDS011;19207;-23.482;-46.500;2022-11-18T00:26:33;8.98;;;3.60;;
21014;SDS011;19207;-23.482;-46.500;2022-11-18T00:29:21;7.87;;;3.45;;
21014;SDS011;19207;-23.482;-46.500;2022-11-18T00:32:07;16.60;;;4.68;;
21014;SDS011;19207;-23.482;-46.500;2022-11-18T00:34:53;14.48;;;4.53;;
21014;SDS011;19207;-23.482;-46.500;2022-11-18T00:37:40;11.63;;;4.10;;
21014;SDS011;19207;-23.482;-46.500;2022-11-18T00:40:26;12.15;;;3.40;;
21014;SDS011;19207;-23.482;-46.500;2022-11-18T00:43:12;12.93;;;3.40;;
21014;SDS011;19207;-23.482;-46.500;2022-11-18T00:45:58;7.85;;;2.85;;
21014;SDS011;19207;-23.482;-46.500;2022-11-18T00:48:45;11.57;;;3.12;;
21014;SDS011;19207;-23.482;-46.500;2022-11-18T00:51:31;8.52;;;2.80;;
21014;SDS011;19207;-23.482;-46.500;2022-11-18T00:54:19;8.13;;;3.33;;
21014;SDS011;19207;-23.482;-46.500;2022-11-18T00:57:05;8.27;;;3.65;;
21014;SDS011;19207;-23.482;-46.500;2022-11-18T00:59:51;6.85;;;3.45;;
21014;SDS011;19207;-23.482;-46.500;2022-11-18T01:02:37;7.05;;;3.45;;
21014;SDS011;19207;-23.482;-46.500;2022-11-18T01:05:24;14.55;;;3.60;;
21014;SDS011;19207;-23.482;-46.500;2022-11-18T01:08:11;11.85;;;3.70;;
21014;SDS011;19207;-23.482;-46.500;2022-11-18T01:10:58;12.05;;;4.10;;
21014;SDS011;19207;-23.482;-46.500;2022-11-18T01:14:04;12.52;;;3.92;;
21014;SDS011;19207;-23.482;-46.500;2022-11-18T01:16:54;10.35;;;3.80;;
21014;SDS011;19207;-23.482;-46.500;2022-11-18T01:19:41;7.68;;;3.42;;
21014;SDS011;19207;-23.482;-46.500;2022-11-18T01:22:27;9.80;;;4.40;;
21014;SDS011;19207;-23.482;-46.500;2022-11-18T01:25:14;7.15;;;4.07;;
21014;SDS011;19207;-23.482;-46.500;2022-11-18T01:28:01;11.70;;;3.97;;
21014;SDS011;19207;-23.482;-46.500;2022-11-18T01:30:47;12.05;;;4.22;;
21014;SDS011;19207;-23.482;-46.500;2022-11-18T01:33:33;22.23;;;4.18;;
21014;SDS011;19207;-23.482;-46.500;2022-11-18T01:36:21;15.45;;;4.47;;
21014;SDS011;19207;-23.482;-46.500;2022-11-18T01:39:08;12.82;;;4.10;;
21014;SDS011;19207;-23.482;-46.500;2022-11-18T01:41:55;17.52;;;4.35;;
21014;SDS011;19207;-23.482;-46.500;2022-11-18T01:47:48;11.70;;;4.07;;
21014;SDS011;19207;-23.482;-46.500;2022-11-18T01:50:37;11.20;;;3.97;;
21014;SDS011;19207;-23.482;-46.500;2022-11-18T01:53:26;18.45;;;5.20;;
21014;SDS011;19207;-23.482;-46.500;2022-11-18T01:56:15;17.23;;;4.70;;
21014;SDS011;19207;-23.482;-46.500;2022-11-18T01:59:07;16.65;;;4.55;;
21014;SDS011;19207;-23.482;-46.500;2022-11-18T02:01:54;10.50;;;4.28;;
21014;SDS011;19207;-23.482;-46.500;2022-11-18T02:04:43;11.07;;;3.35;;
21014;SDS011;19207;-23.482;-46.500;2022-11-18T02:07:34;9.02;;;3.40;;
21014;SDS011;19207;-23.482;-46.500;2022-11-18T02:10:22;8.55;;;2.87;;
21014;SDS011;19207;-23.482;-46.500;2022-11-18T02:13:09;8.23;;;3.30;;
21014;SDS011;19207;-23.482;-46.500;2022-11-18T02:16:07;9.32;;;4.10;;
21014;SDS011;19207;-23.482;-46.500;2022-11-18T02:19:03;13.62;;;3.42;;
21014;SDS011;19207;-23.482;-46.500;2022-11-18T02:21:58;7.15;;;3.53;;
21014;SDS011;19207;-23.482;-46.500;2022-11-18T02:30:52;7.00;;;3.45;;
21014;SDS011;19207;-23.482;-46.500;2022-11-18T02:36:41;14.40;;;3.72;;
21014;SDS011;19207;-23.482;-46.500;2022-11-18T02:39:30;7.97;;;2.97;;
21014;SDS011;19207;-23.482;-46.500;2022-11-18T02:42:19;7.68;;;3.80;;
21014;SDS011;19207;-23.482;-46.500;2022-11-18T02:45:09;19.62;;;3.40;;
21014;SDS011;19207;-23.482;-46.500;2022-11-18T02:47:56;8.38;;;3.20;;
21014;SDS011;19207;-23.482;-46.500;2022-11-18T02:50:46;15.65;;;4.10;;
21014;SDS011;19207;-23.482;-46.500;2022-11-18T02:53:34;8.20;;;3.22;;
21014;SDS011;19207;-23.482;-46.500;2022-11-18T02:56:22;13.45;;;3.45;;
21014;SDS011;19207;-23.482;-46.500;2022-11-18T02:59:09;11.23;;;3.15;;
21014;SDS011;19207;-23.482;-46.500;2022-11-18T03:01:56;8.35;;;2.90;;
21014;SDS011;19207;-23.482;-46.500;2022-11-18T03:04:43;8.27;;;3.47;;
21014;SDS011;19207;-23.482;-46.500;2022-11-18T03:07:32;15.18;;;3.22;;
21014;SDS011;19207;-23.482;-46.500;2022-11-18T03:10:20;12.93;;;3.53;;
21014;SDS011;19207;-23.482;-46.500;2022-11-18T03:13:10;11.68;;;3.55;;
21014;SDS011;19207;-23.482;-46.500;2022-11-18T03:18:54;11.63;;;3.85;;
21014;SDS011;19207;-23.482;-46.500;2022-11-18T03:21:44;12.02;;;3.70;;
21014;SDS011;19207;-23.482;-46.500;2022-11-18T03:24:33;10.50;;;4.12;;
21014;SDS011;19207;-23.482;-46.500;2022-11-18T03:27:22;17.35;;;5.35;;
21014;SDS011;19207;-23.482;-46.500;2022-11-18T03:30:12;13.95;;;4.62;;
21014;SDS011;19207;-23.482;-46.500;2022-11-18T03:33:03;19.55;;;6.82;;
21014;SDS011;19207;-23.482;-46.500;2022-11-18T03:35:51;14.75;;;4.60;;
21014;SDS011;19207;-23.482;-46.500;2022-11-18T03:38:40;11.18;;;3.47;;
21014;SDS011;19207;-23.482;-46.500;2022-11-18T03:41:30;9.30;;;2.92;;
21014;SDS011;19207;-23.482;-46.500;2022-11-18T03:44:20;9.35;;;3.10;;
21014;SDS011;19207;-23.482;-46.500;2022-11-18T03:47:11;9.95;;;3.22;;
21014;SDS011;19207;-23.482;-46.500;2022-11-18T03:50:05;11.18;;;3.00;;
21014;SDS011;19207;-23.482;-46.500;2022-11-18T03:52:53;17.27;;;4.00;;
21014;SDS011;19207;-23.482;-46.500;2022-11-18T03:55:41;12.55;;;4.65;;
21014;SDS011;19207;-23.482;-46.500;2022-11-18T03:58:34;10.25;;;3.50;;
21014;SDS011;19207;-23.482;-46.500;2022-11-18T04:01:24;9.27;;;3.40;;
21014;SDS011;19207;-23.482;-46.500;2022-11-18T04:04:14;16.58;;;3.78;;
21014;SDS011;19207;-23.482;-46.500;2022-11-18T04:09:55;7.78;;;2.85;;
21014;SDS011;19207;-23.482;-46.500;2022-11-18T04:12:45;7.47;;;2.90;;
21014;SDS011;19207;-23.482;-46.500;2022-11-18T04:15:36;7.47;;;2.92;;
21014;SDS011;19207;-23.482;-46.500;2022-11-18T04:18:23;18.25;;;2.87;;
21014;SDS011;19207;-23.482;-46.500;2022-11-18T04:21:10;17.67;;;3.08;;
21014;SDS011;19207;-23.482;-46.500;2022-11-18T04:23:57;8.85;;;3.60;;
21014;SDS011;19207;-23.482;-46.500;2022-11-18T04:26:44;10.18;;;3.42;;
21014;SDS011;19207;-23.482;-46.500;2022-11-18T04:29:31;9.50;;;2.95;;
21014;SDS011;19207;-23.482;-46.500;2022-11-18T04:32:18;12.25;;;3.72;;
21014;SDS011;19207;-23.482;-46.500;2022-11-18T04:35:05;11.90;;;3.10;;
21014;SDS011;19207;-23.482;-46.500;2022-11-18T04:37:52;12.15;;;3.55;;
21014;SDS011;19207;-23.482;-46.500;2022-11-18T04:40:38;8.55;;;2.95;;
21014;SDS011;19207;-23.482;-46.500;2022-11-18T04:43:25;10.18;;;2.95;;
21014;SDS011;19207;-23.482;-46.500;2022-11-18T04:46:11;12.82;;;3.42;;
21014;SDS011;19207;-23.482;-46.500;2022-11-18T04:48:57;7.68;;;3.25;;
21014;SDS011;19207;-23.482;-46.500;2022-11-18T04:51:45;14.45;;;3.40;;
21014;SDS011;19207;-23.482;-46.500;2022-11-18T04:54:31;10.63;;;2.90;;
21014;SDS011;19207;-23.482;-46.500;2022-11-18T04:57:18;9.52;;;2.95;;
21014;SDS011;19207;-23.482;-46.500;2022-11-18T05:00:05;19.25;;;4.65;;
21014;SDS011;19207;-23.482;-46.500;2022-11-18T05:02:52;10.13;;;3.30;;
21014;SDS011;19207;-23.482;-46.500;2022-11-18T05:05:39;15.77;;;4.22;;
21014;SDS011;19207;-23.482;-46.500;2022-11-18T05:08:26;10.73;;;3.45;;
21014;SDS011;19207;-23.482;-46.500;2022-11-18T05:11:13;11.07;;;3.70;;
21014;SDS011;19207;-23.482;-46.500;2022-11-18T05:14:18;9.02;;;3.00;;
21014;SDS011;19207;-23.482;-46.500;2022-11-18T05:17:06;20.98;;;3.03;;
21014;SDS011;19207;-23.482;-46.500;2022-11-18T05:19:53;11.95;;;3.40;;
21014;SDS011;19207;-23.482;-46.500;2022-11-18T05:22:40;13.55;;;3.42;;
21014;SDS011;19207;-23.482;-46.500;2022-11-18T05:25:27;8.25;;;3.60;;
21014;SDS011;19207;-23.482;-46.500;2022-11-18T05:28:14;16.40;;;3.58;;
21014;SDS011;19207;-23.482;-46.500;2022-11-18T05:31:07;12.10;;;3.10;;
21014;SDS011;19207;-23.482;-46.500;2022-11-18T05:33:54;10.38;;;3.75;;
21014;SDS011;19207;-23.482;-46.500;2022-11-18T05:36:40;17.95;;;3.87;;
21014;SDS011;19207;-23.482;-46.500;2022-11-18T05:39:27;21.40;;;4.78;;
21014;SDS011;19207;-23.482;-46.500;2022-11-18T05:42:14;7.80;;;3.28;;
21014;SDS011;19207;-23.482;-46.500;2022-11-18T05:45:19;11.93;;;4.37;;
21014;SDS011;19207;-23.482;-46.500;2022-11-18T05:48:06;11.00;;;4.00;;
21014;SDS011;19207;-23.482;-46.500;2022-11-18T05:50:53;10.43;;;2.83;;
21014;SDS011;19207;-23.482;-46.500;2022-11-18T05:53:39;15.52;;;3.05;;
21014;SDS011;19207;-23.482;-46.500;2022-11-18T05:59:13;12.20;;;3.37;;
21014;SDS011;19207;-23.482;-46.500;2022-11-18T06:02:07;14.87;;;3.58;;
21014;SDS011;19207;-23.482;-46.500;2022-11-18T06:04:58;19.55;;;5.68;;
21014;SDS011;19207;-23.482;-46.500;2022-11-18T06:07:45;18.27;;;4.12;;
21014;SDS011;19207;-23.482;-46.500;2022-11-18T06:10:32;12.27;;;3.45;;
21014;SDS011;19207;-23.482;-46.500;2022-11-18T06:13:23;13.55;;;3.37;;
21014;SDS011;19207;-23.482;-46.500;2022-11-18T06:16:11;14.15;;;4.10;;
21014;SDS011;19207;-23.482;-46.500;2022-11-18T06:18:58;14.85;;;4.95;;
21014;SDS011;19207;-23.482;-46.500;2022-11-18T06:21:44;13.62;;;4.53;;
21014;SDS011;19207;-23.482;-46.500;2022-11-18T06:24:31;11.73;;;3.65;;
21014;SDS011;19207;-23.482;-46.500;2022-11-18T06:27:19;7.90;;;3.92;;
21014;SDS011;19207;-23.482;-46.500;2022-11-18T06:30:07;11.88;;;4.12;;
21014;SDS011;19207;-23.482;-46.500;2022-11-18T06:32:54;9.95;;;3.10;;
21014;SDS011;19207;-23.482;-46.500;2022-11-18T06:35:41;9.20;;;3.75;;
21014;SDS011;19207;-23.482;-46.500;2022-11-18T06:38:28;6.70;;;3.40;;
21014;SDS011;19207;-23.482;-46.500;2022-11-18T06:41:14;10.60;;;4.05;;
21014;SDS011;19207;-23.482;-46.500;2022-11-18T06:44:01;12.32;;;3.85;;
21014;SDS011;19207;-23.482;-46.500;2022-11-18T06:46:48;14.18;;;3.70;;
21014;SDS011;19207;-23.482;-46.500;2022-11-18T06:49:40;11.05;;;3.80;;
21014;SDS011;19207;-23.482;-46.500;2022-11-18T06:52:27;17.17;;;3.90;;
21014;SDS011;19207;-23.482;-46.500;2022-11-18T06:55:13;9.75;;;3.50;;
21014;SDS011;19207;-23.482;-46.500;2022-11-18T06:58:00;9.05;;;3.25;;
21014;SDS011;19207;-23.482;-46.500;2022-11-18T07:00:47;12.70;;;3.60;;
21014;SDS011;19207;-23.482;-46.500;2022-11-18T07:03:33;15.02;;;3.70;;
21014;SDS011;19207;-23.482;-46.500;2022-11-18T07:06:21;13.73;;;4.00;;
21014;SDS011;19207;-23.482;-46.500;2022-11-18T07:09:08;11.80;;;3.78;;
21014;SDS011;19207;-23.482;-46.500;2022-11-18T07:11:54;9.65;;;4.20;;
21014;SDS011;19207;-23.482;-46.500;2022-11-18T07:14:41;18.30;;;5.78;;
21014;SDS011;19207;-23.482;-46.500;2022-11-18T07:17:30;19.48;;;5.72;;
21014;SDS011;19207;-23.482;-46.500;2022-11-18T07:20:17;20.73;;;6.22;;
21014;SDS011;19207;-23.482;-46.500;2022-11-18T07:23:04;13.93;;;5.43;;
21014;SDS011;19207;-23.482;-46.500;2022-11-18T07:25:53;20.85;;;5.90;;
21014;SDS011;19207;-23.482;-46.500;2022-11-18T07:28:40;19.10;;;6.05;;
21014;SDS011;19207;-23.482;-46.500;2022-11-18T07:31:27;20.37;;;6.78;;
21014;SDS011;19207;-23.482;-46.500;2022-11-18T07:34:13;17.92;;;6.28;;
21014;SDS011;19207;-23.482;-46.500;2022-11-18T07:37:00;22.35;;;6.82;;
21014;SDS011;19207;-23.482;-46.500;2022-11-18T07:39:47;19.15;;;6.87;;
21014;SDS011;19207;-23.482;-46.500;2022-11-18T07:42:33;21.33;;;6.15;;
21014;SDS011;19207;-23.482;-46.500;2022-11-18T07:45:26;16.90;;;7.15;;
21014;SDS011;19207;-23.482;-46.500;2022-11-18T07:48:13;11.60;;;4.65;;
21014;SDS011;19207;-23.482;-46.500;2022-11-18T07:50:59;17.12;;;4.97;;
21014;SDS011;19207;-23.482;-46.500;2022-11-18T07:53:46;16.15;;;4.70;;
21014;SDS011;19207;-23.482;-46.500;2022-11-18T07:56:33;13.80;;;4.93;;
21014;SDS011;19207;-23.482;-46.500;2022-11-18T07:59:20;15.35;;;5.03;;
21014;SDS011;19207;-23.482;-46.500;2022-11-18T08:02:10;18.77;;;5.18;;
21014;SDS011;19207;-23.482;-46.500;2022-11-18T08:04:56;14.32;;;5.30;;
21014;SDS011;19207;-23.482;-46.500;2022-11-18T08:07:43;15.35;;;4.40;;
21014;SDS011;19207;-23.482;-46.500;2022-11-18T08:10:29;12.10;;;4.50;;
21014;SDS011;19207;-23.482;-46.500;2022-11-18T08:13:16;10.25;;;4.87;;
21014;SDS011;19207;-23.482;-46.500;2022-11-18T08:16:03;7.93;;;4.65;;
21014;SDS011;19207;-23.482;-46.500;2022-11-18T08:18:50;10.43;;;3.92;;
21014;SDS011;19207;-23.482;-46.500;2022-11-18T08:21:37;9.32;;;3.62;;
21014;SDS011;19207;-23.482;-46.500;2022-11-18T08:24:24;11.38;;;3.40;;
21014;SDS011;19207;-23.482;-46.500;2022-11-18T08:27:11;17.10;;;4.20;;
21014;SDS011;19207;-23.482;-46.500;2022-11-18T08:29:57;11.35;;;3.17;;
21014;SDS011;19207;-23.482;-46.500;2022-11-18T08:32:44;11.68;;;3.62;;
21014;SDS011;19207;-23.482;-46.500;2022-11-18T08:35:31;15.63;;;3.50;;
21014;SDS011;19207;-23.482;-46.500;2022-11-18T08:38:19;14.13;;;4.12;;
21014;SDS011;19207;-23.482;-46.500;2022-11-18T08:41:06;13.60;;;3.55;;
21014;SDS011;19207;-23.482;-46.500;2022-11-18T08:43:52;30.77;;;5.87;;
21014;SDS011;19207;-23.482;-46.500;2022-11-18T08:46:39;17.12;;;6.10;;
21014;SDS011;19207;-23.482;-46.500;2022-11-18T08:49:26;15.88;;;6.32;;
21014;SDS011;19207;-23.482;-46.500;2022-11-18T08:52:13;16.65;;;6.12;;
21014;SDS011;19207;-23.482;-46.500;2022-11-18T08:54:59;15.02;;;5.15;;
21014;SDS011;19207;-23.482;-46.500;2022-11-18T08:57:46;12.90;;;4.45;;
21014;SDS011;19207;-23.482;-46.500;2022-11-18T09:00:33;20.45;;;4.53;;
21014;SDS011;19207;-23.482;-46.500;2022-11-18T09:03:21;8.45;;;3.62;;
21014;SDS011;19207;-23.482;-46.500;2022-11-18T09:06:08;12.13;;;3.97;;
21014;SDS011;19207;-23.482;-46.500;2022-11-18T09:08:55;8.38;;;3.20;;
21014;SDS011;19207;-23.482;-46.500;2022-11-18T09:11:42;17.00;;;3.60;;
21014;SDS011;19207;-23.482;-46.500;2022-11-18T09:14:30;9.13;;;3.97;;
21014;SDS011;19207;-23.482;-46.500;2022-11-18T09:17:16;7.37;;;3.05;;
21014;SDS011;19207;-23.482;-46.500;2022-11-18T09:20:02;12.27;;;3.85;;
21014;SDS011;19207;-23.482;-46.500;2022-11-18T09:22:49;6.72;;;2.65;;
21014;SDS011;19207;-23.482;-46.500;2022-11-18T09:25:36;11.40;;;4.00;;
21014;SDS011;19207;-23.482;-46.500;2022-11-18T09:28:23;10.02;;;3.42;;
21014;SDS011;19207;-23.482;-46.500;2022-11-18T09:31:14;10.25;;;3.75;;
21014;SDS011;19207;-23.482;-46.500;2022-11-18T09:34:01;12.18;;;3.40;;
21014;SDS011;19207;-23.482;-46.500;2022-11-18T09:36:48;12.05;;;4.75;;
21014;SDS011;19207;-23.482;-46.500;2022-11-18T09:39:35;8.30;;;3.10;;
21014;SDS011;19207;-23.482;-46.500;2022-11-18T09:45:22;6.03;;;2.72;;
21014;SDS011;19207;-23.482;-46.500;2022-11-18T09:48:28;8.43;;;2.83;;
21014;SDS011;19207;-23.482;-46.500;2022-11-18T09:51:35;11.77;;;3.35;;
21014;SDS011;19207;-23.482;-46.500;2022-11-18T09:54:24;10.77;;;2.78;;
21014;SDS011;19207;-23.482;-46.500;2022-11-18T09:57:15;17.02;;;2.83;;
21014;SDS011;19207;-23.482;-46.500;2022-11-18T10:00:04;7.78;;;3.00;;
21014;SDS011;19207;-23.482;-46.500;2022-11-18T10:03:03;11.23;;;2.30;;
21014;SDS011;19207;-23.482;-46.500;2022-11-18T10:11:34;11.48;;;3.17;;
21014;SDS011;19207;-23.482;-46.500;2022-11-18T10:14:37;12.02;;;1.90;;
21014;SDS011;19207;-23.482;-46.500;2022-11-18T10:20:43;5.53;;;1.92;;
21014;SDS011;19207;-23.482;-46.500;2022-11-18T10:23:39;6.97;;;2.17;;
21014;SDS011;19207;-23.482;-46.500;2022-11-18T10:26:35;7.57;;;2.40;;
21014;SDS011;19207;-23.482;-46.500;2022-11-18T10:29:22;10.25;;;2.47;;
21014;SDS011;19207;-23.482;-46.500;2022-11-18T10:32:13;6.57;;;2.05;;
21014;SDS011;19207;-23.482;-46.500;2022-11-18T10:35:00;4.85;;;2.05;;
21014;SDS011;19207;-23.482;-46.500;2022-11-18T10:37:47;19.40;;;3.75;;
21014;SDS011;19207;-23.482;-46.500;2022-11-18T10:40:55;9.82;;;2.83;;
21014;SDS011;19207;-23.482;-46.500;2022-11-18T10:43:43;14.32;;;3.17;;
21014;SDS011;19207;-23.482;-46.500;2022-11-18T10:46:31;12.35;;;2.58;;
21014;SDS011;19207;-23.482;-46.500;2022-11-18T10:49:17;6.40;;;2.85;;
21014;SDS011;19207;-23.482;-46.500;2022-11-18T10:52:07;5.57;;;2.22;;
21014;SDS011;19207;-23.482;-46.500;2022-11-18T10:58:12;10.68;;;2.50;;
21014;SDS011;19207;-23.482;-46.500;2022-11-18T11:01:04;9.70;;;2.72;;
21014;SDS011;19207;-23.482;-46.500;2022-11-18T11:04:01;10.27;;;2.72;;
21014;SDS011;19207;-23.482;-46.500;2022-11-18T11:06:48;4.87;;;3.05;;
21014;SDS011;19207;-23.482;-46.500;2022-11-18T11:09:35;6.75;;;2.37;;
21014;SDS011;19207;-23.482;-46.500;2022-11-18T11:12:22;10.23;;;2.45;;
21014;SDS011;19207;-23.482;-46.500;2022-11-18T11:15:09;9.38;;;3.50;;
21014;SDS011;19207;-23.482;-46.500;2022-11-18T11:18:00;8.93;;;3.47;;
21014;SDS011;19207;-23.482;-46.500;2022-11-18T11:21:13;5.93;;;2.60;;
21014;SDS011;19207;-23.482;-46.500;2022-11-18T11:23:59;10.68;;;3.87;;
21014;SDS011;19207;-23.482;-46.500;2022-11-18T11:44:27;6.30;;;2.62;;
21014;SDS011;19207;-23.482;-46.500;2022-11-18T11:50:46;11.63;;;2.60;;
21014;SDS011;19207;-23.482;-46.500;2022-11-18T11:59:37;6.30;;;3.00;;
21014;SDS011;19207;-23.482;-46.500;2022-11-18T12:08:02;7.35;;;2.53;;
21014;SDS011;19207;-23.482;-46.500;2022-11-18T12:10:52;17.30;;;3.17;;
21014;SDS011;19207;-23.482;-46.500;2022-11-18T12:16:46;7.82;;;2.80;;
21014;SDS011;19207;-23.482;-46.500;2022-11-18T12:19:36;10.90;;;2.85;;
21014;SDS011;19207;-23.482;-46.500;2022-11-18T12:22:29;7.30;;;2.60;;
21014;SDS011;19207;-23.482;-46.500;2022-11-18T12:28:41;12.05;;;3.83;;
21014;SDS011;19207;-23.482;-46.500;2022-11-18T12:31:32;11.43;;;3.08;;
21014;SDS011;19207;-23.482;-46.500;2022-11-18T12:37:43;5.80;;;3.00;;
21014;SDS011;19207;-23.482;-46.500;2022-11-18T12:40:37;8.77;;;2.70;;
21014;SDS011;19207;-23.482;-46.500;2022-11-18T12:55:25;12.65;;;3.10;;
21014;SDS011;19207;-23.482;-46.500;2022-11-18T12:58:19;6.35;;;2.70;;
21014;SDS011;19207;-23.482;-46.500;2022-11-18T13:01:09;14.98;;;2.72;;
21014;SDS011;19207;-23.482;-46.500;2022-11-18T13:04:15;5.95;;;2.60;;
21014;SDS011;19207;-23.482;-46.500;2022-11-18T13:07:04;7.35;;;3.75;;
21014;SDS011;19207;-23.482;-46.500;2022-11-18T13:10:22;8.48;;;3.20;;
21014;SDS011;19207;-23.482;-46.500;2022-11-18T13:16:17;8.63;;;2.05;;
21014;SDS011;19207;-23.482;-46.500;2022-11-18T13:19:23;9.90;;;2.62;;
21014;SDS011;19207;-23.482;-46.500;2022-11-18T13:22:16;5.53;;;2.45;;
21014;SDS011;19207;-23.482;-46.500;2022-11-18T13:25:22;13.60;;;4.07;;
21014;SDS011;19207;-23.482;-46.500;2022-11-18T13:28:12;5.43;;;3.33;;
21014;SDS011;19207;-23.482;-46.500;2022-11-18T13:34:00;8.40;;;2.55;;
21014;SDS011;19207;-23.482;-46.500;2022-11-18T13:36:48;5.78;;;2.10;;
21014;SDS011;19207;-23.482;-46.500;2022-11-18T13:39:35;7.25;;;2.35;;
21014;SDS011;19207;-23.482;-46.500;2022-11-18T13:42:29;5.62;;;2.00;;
21014;SDS011;19207;-23.482;-46.500;2022-11-18T13:45:15;6.03;;;3.37;;
21014;SDS011;19207;-23.482;-46.500;2022-11-18T13:48:09;10.00;;;3.10;;
21014;SDS011;19207;-23.482;-46.500;2022-11-18T13:50:58;6.65;;;2.53;;
21014;SDS011;19207;-23.482;-46.500;2022-11-18T13:53:45;6.07;;;2.08;;
21014;SDS011;19207;-23.482;-46.500;2022-11-18T13:56:32;11.55;;;2.05;;
21014;SDS011;19207;-23.482;-46.500;2022-11-18T13:59:19;6.40;;;1.90;;
21014;SDS011;19207;-23.482;-46.500;2022-11-18T14:02:07;6.05;;;2.25;;
21014;SDS011;19207;-23.482;-46.500;2022-11-18T14:04:55;7.80;;;2.50;;
21014;SDS011;19207;-23.482;-46.500;2022-11-18T14:07:51;4.43;;;2.10;;
21014;SDS011;19207;-23.482;-46.500;2022-11-18T14:10:43;9.70;;;2.20;;
21014;SDS011;19207;-23.482;-46.500;2022-11-18T14:13:32;6.25;;;3.60;;
21014;SDS011;19207;-23.482;-46.500;2022-11-18T14:19:05;8.32;;;2.00;;
21014;SDS011;19207;-23.482;-46.500;2022-11-18T14:21:52;7.12;;;2.00;;
21014;SDS011;19207;-23.482;-46.500;2022-11-18T14:24:39;3.97;;;2.20;;
21014;SDS011;19207;-23.482;-46.500;2022-11-18T14:27:42;8.55;;;2.62;;
21014;SDS011;19207;-23.482;-46.500;2022-11-18T14:30:30;6.45;;;2.20;;
21014;SDS011;19207;-23.482;-46.500;2022-11-18T14:33:18;5.62;;;2.17;;
21014;SDS011;19207;-23.482;-46.500;2022-11-18T14:36:14;8.25;;;2.42;;
21014;SDS011;19207;-23.482;-46.500;2022-11-18T14:39:01;9.73;;;2.28;;
21014;SDS011;19207;-23.482;-46.500;2022-11-18T14:41:57;4.90;;;2.15;;
21014;SDS011;19207;-23.482;-46.500;2022-11-18T14:44:44;8.55;;;2.92;;
21014;SDS011;19207;-23.482;-46.500;2022-11-18T14:47:30;6.90;;;2.28;;
21014;SDS011;19207;-23.482;-46.500;2022-11-18T14:50:17;5.15;;;2.30;;
21014;SDS011;19207;-23.482;-46.500;2022-11-18T14:53:03;9.07;;;3.72;;
21014;SDS011;19207;-23.482;-46.500;2022-11-18T14:55:50;8.32;;;2.90;;
21014;SDS011;19207;-23.482;-46.500;2022-11-18T14:58:37;11.35;;;2.25;;
21014;SDS011;19207;-23.482;-46.500;2022-11-18T15:01:24;5.40;;;2.10;;
21014;SDS011;19207;-23.482;-46.500;2022-11-18T15:04:13;6.18;;;2.00;;
21014;SDS011;19207;-23.482;-46.500;2022-11-18T15:07:01;8.20;;;2.95;;
21014;SDS011;19207;-23.482;-46.500;2022-11-18T15:09:48;3.85;;;2.10;;
21014;SDS011;19207;-23.482;-46.500;2022-11-18T15:12:34;5.15;;;2.12;;
21014;SDS011;19207;-23.482;-46.500;2022-11-18T15:15:21;10.80;;;2.70;;
21014;SDS011;19207;-23.482;-46.500;2022-11-18T15:18:08;11.80;;;2.37;;
21014;SDS011;19207;-23.482;-46.500;2022-11-18T15:20:54;9.18;;;2.20;;
21014;SDS011;19207;-23.482;-46.500;2022-11-18T15:23:41;8.77;;;3.05;;
21014;SDS011;19207;-23.482;-46.500;2022-11-18T15:26:31;6.93;;;2.50;;
21014;SDS011;19207;-23.482;-46.500;2022-11-18T15:29:20;5.53;;;2.20;;
21014;SDS011;19207;-23.482;-46.500;2022-11-18T15:32:07;4.37;;;2.30;;
21014;SDS011;19207;-23.482;-46.500;2022-11-18T15:34:53;5.78;;;2.42;;
21014;SDS011;19207;-23.482;-46.500;2022-11-18T15:37:40;6.97;;;3.15;;
21014;SDS011;19207;-23.482;-46.500;2022-11-18T15:40:27;7.05;;;2.85;;
21014;SDS011;19207;-23.482;-46.500;2022-11-18T15:43:13;10.02;;;2.72;;
21014;SDS011;19207;-23.482;-46.500;2022-11-18T15:46:01;5.20;;;2.33;;
21014;SDS011;19207;-23.482;-46.500;2022-11-18T15:48:51;9.05;;;2.35;;
21014;SDS011;19207;-23.482;-46.500;2022-11-18T15:51:38;10.38;;;2.62;;
21014;SDS011;19207;-23.482;-46.500;2022-11-18T15:54:25;5.03;;;2.20;;
21014;SDS011;19207;-23.482;-46.500;2022-11-18T15:57:11;7.75;;;2.37;;
21014;SDS011;19207;-23.482;-46.500;2022-11-18T15:59:57;5.35;;;2.50;;
21014;SDS011;19207;-23.482;-46.500;2022-11-18T16:02:44;6.50;;;3.08;;
21014;SDS011;19207;-23.482;-46.500;2022-11-18T16:05:30;7.40;;;2.97;;
21014;SDS011;19207;-23.482;-46.500;2022-11-18T16:08:17;6.10;;;3.03;;
21014;SDS011;19207;-23.482;-46.500;2022-11-18T16:11:03;4.97;;;2.20;;
21014;SDS011;19207;-23.482;-46.500;2022-11-18T16:14:09;5.90;;;2.20;;
21014;SDS011;19207;-23.482;-46.500;2022-11-18T16:16:56;6.35;;;2.40;;
21014;SDS011;19207;-23.482;-46.500;2022-11-18T16:19:43;8.68;;;2.70;;
21014;SDS011;19207;-23.482;-46.500;2022-11-18T16:22:29;4.35;;;2.00;;
21014;SDS011;19207;-23.482;-46.500;2022-11-18T16:25:16;7.60;;;3.85;;
21014;SDS011;19207;-23.482;-46.500;2022-11-18T16:28:03;8.70;;;3.50;;
21014;SDS011;19207;-23.482;-46.500;2022-11-18T16:30:49;5.68;;;2.60;;
21014;SDS011;19207;-23.482;-46.500;2022-11-18T16:33:54;8.02;;;3.25;;
21014;SDS011;19207;-23.482;-46.500;2022-11-18T16:36:45;7.32;;;2.75;;
21014;SDS011;19207;-23.482;-46.500;2022-11-18T16:39:32;8.82;;;2.92;;
21014;SDS011;19207;-23.482;-46.500;2022-11-18T16:42:19;7.12;;;2.65;;
21014;SDS011;19207;-23.482;-46.500;2022-11-18T16:45:06;7.90;;;3.37;;
21014;SDS011;19207;-23.482;-46.500;2022-11-18T16:47:53;10.38;;;3.35;;
21014;SDS011;19207;-23.482;-46.500;2022-11-18T16:50:39;5.85;;;3.30;;
21014;SDS011;19207;-23.482;-46.500;2022-11-18T16:53:26;6.37;;;2.67;;
21014;SDS011;19207;-23.482;-46.500;2022-11-18T16:56:15;5.72;;;2.60;;
21014;SDS011;19207;-23.482;-46.500;2022-11-18T16:59:05;8.95;;;2.55;;
21014;SDS011;19207;-23.482;-46.500;2022-11-18T17:01:52;12.98;;;2.80;;
21014;SDS011;19207;-23.482;-46.500;2022-11-18T17:04:39;5.10;;;2.37;;
21014;SDS011;19207;-23.482;-46.500;2022-11-18T17:07:26;10.07;;;3.17;;
21014;SDS011;19207;-23.482;-46.500;2022-11-18T17:10:13;11.45;;;3.40;;
21014;SDS011;19207;-23.482;-46.500;2022-11-18T17:13:05;5.50;;;2.12;;
21014;SDS011;19207;-23.482;-46.500;2022-11-18T17:15:51;7.40;;;2.20;;
21014;SDS011;19207;-23.482;-46.500;2022-11-18T17:18:38;7.68;;;2.40;;
21014;SDS011;19207;-23.482;-46.500;2022-11-18T17:21:26;11.75;;;2.30;;
21014;SDS011;19207;-23.482;-46.500;2022-11-18T17:24:13;7.95;;;2.80;;
21014;SDS011;19207;-23.482;-46.500;2022-11-18T17:26:59;8.45;;;2.80;;
21014;SDS011;19207;-23.482;-46.500;2022-11-18T17:29:46;11.75;;;2.97;;
21014;SDS011;19207;-23.482;-46.500;2022-11-18T17:32:34;6.00;;;2.60;;
21014;SDS011;19207;-23.482;-46.500;2022-11-18T17:35:22;12.77;;;2.30;;
21014;SDS011;19207;-23.482;-46.500;2022-11-18T17:38:09;6.50;;;2.28;;
21014;SDS011;19207;-23.482;-46.500;2022-11-18T17:40:58;6.97;;;2.37;;
21014;SDS011;19207;-23.482;-46.500;2022-11-18T17:43:46;13.18;;;3.42;;